Time;durP1;ratioP1;P1;durP2;ratioP2;P2;SDS_P1;SDS_P2;PMS_P1;PMS_P2;Temp;Humidity;BMP_temperature;BMP_pressure;BME280_temperature;BME280_humidity;BME280_pressure;Samples;Min_cycle;Max_cycle;Signal;HPM_P1;HPM_P2
2022/04/09 00:00:23;;;;;;;4.10;1.90;;;;;;;13.52;41.88;97338.12;1735942;82;20938;-64
2022/04/09 00:02:51;;;;;;;3.33;1.40;;;;;;;13.52;41.98;97337.31;1735245;82;20962;-65
2022/04/09 00:05:18;;;;;;;2.70;1.75;;;;;;;13.49;42.34;97335.93;1734868;82;21563;-66
2022/04/09 00:07:45;;;;;;;4.22;1.85;;;;;;;13.49;42.30;97338.60;1734930;82;21220;-65
2022/04/09 00:10:13;;;;;;;3.70;1.60;;;;;;;13.48;42.19;97334.30;1735901;82;21563;-66
2022/04/09 00:12:44;;;;;;;2.72;1.92;;;;;;;13.48;42.39;97332.96;1729674;81;20974;-63
2022/04/09 00:15:10;;;;;;;2.77;1.85;;;;;;;13.48;42.59;97322.80;1696731;83;21030;-64
2022/04/09 00:17:41;;;;;;;2.92;1.65;;;;;;;13.47;42.71;97314.00;1726271;82;20994;-66
2022/04/09 00:20:10;;;;;;;3.22;1.70;;;;;;;13.48;42.73;97319.61;1727732;82;21076;-64
2022/04/09 00:22:39;;;;;;;2.33;1.47;;;;;;;13.46;42.72;97315.03;1727474;82;21453;-64
2022/04/09 00:25:12;;;;;;;1.87;1.40;;;;;;;13.48;42.79;97323.61;1726124;82;21010;-65
2022/04/09 00:27:39;;;;;;;2.08;1.37;;;;;;;13.49;42.91;97321.23;1726543;83;20942;-65
2022/04/09 00:30:09;;;;;;;3.15;1.30;;;;;;;13.53;42.97;97326.92;1726584;83;21021;-65
2022/04/09 00:32:37;;;;;;;4.78;1.40;;;;;;;13.51;43.13;97319.13;1727587;82;21196;-64
2022/04/09 00:35:06;;;;;;;2.83;1.62;;;;;;;13.53;43.22;97325.03;1727023;82;21051;-64
2022/04/09 00:37:42;;;;;;;1.72;1.42;;;;;;;13.52;43.42;97319.95;1727639;82;20864;-65
2022/04/09 00:40:10;;;;;;;;;;;;;;;13.53;43.66;97329.05;1718482;83;20951;-64
2022/04/09 00:42:38;;;;;;;2.55;1.00;;;;;;;13.52;44.41;97327.44;1688854;84;20085;-63
2022/04/09 00:45:08;;;;;;;2.00;1.35;;;;;;;13.54;44.57;97321.84;1692336;84;21237;-66
2022/04/09 00:47:38;;;;;;;1.72;0.95;;;;;;;13.53;44.77;97318.36;1686324;84;20886;-63
2022/04/09 00:50:08;;;;;;;2.17;1.20;;;;;;;13.53;45.09;97318.36;1692244;84;20903;-65
2022/04/09 00:52:40;;;;;;;1.65;0.85;;;;;;;13.47;45.46;97307.84;1692288;84;21107;-65
2022/04/09 00:55:08;;;;;;;3.33;1.40;;;;;;;13.44;45.73;97308.31;1691888;84;21024;-63
2022/04/09 00:57:35;;;;;;;3.15;1.47;;;;;;;13.40;46.29;97317.87;1692317;84;21253;-64
2022/04/09 01:00:09;;;;;;;1.70;1.40;;;;;;;13.35;46.63;97315.90;1692167;84;20951;-62
2022/04/09 01:02:42;;;;;;;2.83;1.80;;;;;;;13.31;47.01;97305.42;1692266;84;21340;-63
2022/04/09 01:05:12;;;;;;;2.83;1.57;;;;;;;13.26;47.33;97300.00;1686290;84;21021;-63
2022/04/09 01:07:40;;;;;;;3.77;1.30;;;;;;;13.19;47.74;97295.86;1674617;85;20944;-66
2022/04/09 01:10:10;;;;;;;2.20;1.55;;;;;;;13.12;47.97;97289.31;1692368;84;21468;-64
2022/04/09 01:12:37;;;;;;;1.95;1.45;;;;;;;13.05;48.23;97269.94;1706199;81;21591;-61
2022/04/09 01:15:07;;;;;;;2.95;2.35;;;;;;;13.03;48.28;97264.03;1755338;81;21001;-66
2022/04/09 01:17:36;;;;;;;3.30;2.95;;;;;;;12.98;48.64;97251.38;1754367;81;21520;-65
2022/04/09 01:20:22;;;;;;;4.65;2.72;;;;;;;12.92;49.04;97234.20;1756823;81;21040;-63
2022/04/09 01:22:51;;;;;;;3.70;2.00;;;;;;;12.85;49.51;97225.53;1756866;81;21278;-61
2022/04/09 01:25:19;;;;;;;3.58;1.90;;;;;;;12.78;50.10;97202.17;1755965;81;20994;-65
2022/04/09 01:27:47;;;;;;;2.52;1.72;;;;;;;12.71;50.50;97198.84;1755940;81;21017;-64
2022/04/09 01:30:16;;;;;;;2.70;1.62;;;;;;;12.64;50.90;97187.52;1755735;81;20954;-64
2022/04/09 01:32:45;;;;;;;3.10;1.65;;;;;;;12.61;51.19;97174.65;1755354;81;20887;-65
2022/04/09 01:35:13;;;;;;;3.77;1.75;;;;;;;12.59;51.48;97167.41;1742000;81;21166;-64
2022/04/09 01:37:40;;;;;;;3.25;1.72;;;;;;;12.54;51.65;97161.44;1756215;81;20930;-64
2022/04/09 01:40:09;;;;;;;3.22;1.70;;;;;;;12.48;52.07;97146.41;1755713;81;20943;-63
2022/04/09 01:42:40;;;;;;;3.05;1.70;;;;;;;12.42;52.16;97143.35;1756519;81;20886;-63
2022/04/09 01:45:08;;;;;;;3.42;1.55;;;;;;;12.35;52.54;97135.52;1748392;81;21515;-65
2022/04/09 01:47:40;;;;;;;2.77;1.65;;;;;;;12.28;52.91;97128.16;1755728;81;21873;-67
2022/04/09 01:50:08;;;;;;;2.37;1.32;;;;;;;12.18;53.46;97119.15;1756538;80;20910;-62
2022/04/09 01:52:36;;;;;;;2.87;1.95;;;;;;;12.12;53.84;97111.57;1754880;81;21320;-64
2022/04/09 01:55:06;;;;;;;4.03;1.75;;;;;;;12.08;54.23;97114.44;1755527;81;21571;-64
2022/04/09 01:57:34;;;;;;;2.98;1.85;;;;;;;12.03;54.43;97102.34;1749041;81;20856;-62
2022/04/09 02:00:06;;;;;;;3.42;2.40;;;;;;;11.93;54.69;97084.83;1755187;81;20903;-65
2022/04/09 02:02:35;;;;;;;3.20;2.17;;;;;;;11.84;55.14;97096.07;1754714;81;20883;-65
2022/04/09 02:05:02;;;;;;;2.72;2.05;;;;;;;11.75;55.16;97091.14;1754196;81;20978;-64
2022/04/09 02:07:29;;;;;;;3.22;1.72;;;;;;;11.67;55.38;97091.98;1754854;81;21472;-65
2022/04/09 02:09:58;;;;;;;4.35;2.10;;;;;;;11.56;55.36;97084.30;1756393;81;20926;-63
2022/04/09 02:12:33;;;;;;;3.12;1.95;;;;;;;11.51;55.54;97088.19;1759016;80;21374;-62
2022/04/09 02:15:08;;;;;;;3.05;2.22;;;;;;;11.45;56.08;97086.44;1764739;80;20949;-65
2022/04/09 02:17:38;;;;;;;3.37;2.10;;;;;;;11.38;56.21;97079.11;1764405;80;20974;-65
2022/04/09 02:20:07;;;;;;;3.40;2.10;;;;;;;11.37;56.35;97084.65;1764677;80;21025;-66
2022/04/09 02:22:41;;;;;;;3.85;2.40;;;;;;;11.34;56.45;97078.48;1763784;80;21378;-64
2022/04/09 02:25:10;;;;;;;2.65;2.22;;;;;;;11.35;56.65;97070.25;1764219;80;21863;-65
2022/04/09 02:27:38;;;;;;;5.67;2.50;;;;;;;11.39;56.63;97073.27;1764616;80;20985;-63
2022/04/09 02:30:08;;;;;;;3.15;2.65;;;;;;;11.39;56.62;97065.28;1764144;80;21384;-63
2022/04/09 02:32:48;;;;;;;2.95;2.65;;;;;;;11.44;56.46;97069.39;1763983;81;20985;-63
2022/04/09 02:35:18;;;;;;;4.35;3.27;;;;;;;11.46;56.55;97052.65;1761509;80;21495;-66
2022/04/09 02:37:45;;;;;;;4.45;2.72;;;;;;;11.41;56.85;97063.19;1764903;80;21150;-64
2022/04/09 02:40:13;;;;;;;3.70;2.75;;;;;;;11.40;57.20;97065.04;1763995;81;20978;-66
2022/04/09 02:42:41;;;;;;;4.20;2.83;;;;;;;11.34;57.50;97059.85;1763843;80;20982;-63
2022/04/09 02:45:09;;;;;;;3.90;2.77;;;;;;;11.31;57.60;97061.64;1763175;80;20965;-65
2022/04/09 02:47:37;;;;;;;4.67;2.58;;;;;;;11.25;57.90;97042.60;1764865;80;21032;-64
2022/04/09 02:50:07;;;;;;;4.28;2.62;;;;;;;11.20;57.99;97039.83;1764622;80;21306;-63
2022/04/09 02:52:40;;;;;;;6.65;2.95;;;;;;;11.14;58.20;97034.40;1763721;80;20851;-64
2022/04/09 02:55:09;;;;;;;3.75;2.77;;;;;;;11.16;58.21;97039.47;1764285;80;20989;-63
2022/04/09 02:57:37;;;;;;;4.60;3.15;;;;;;;11.16;58.11;97041.63;1763141;80;20963;-63
2022/04/09 03:00:08;;;;;;;3.70;2.50;;;;;;;11.18;58.07;97047.52;1764249;80;20965;-63
2022/04/09 03:02:36;;;;;;;4.67;3.02;;;;;;;11.22;57.99;97043.87;1763978;80;22087;-64
2022/04/09 03:05:06;;;;;;;3.27;2.98;;;;;;;11.27;57.82;97036.52;1764864;80;21400;-64
2022/04/09 03:07:34;;;;;;;4.83;2.80;;;;;;;11.46;57.29;97042.00;1764513;80;21432;-66
2022/04/09 03:10:02;;;;;;;3.80;3.30;;;;;;;11.54;56.92;97037.65;1764681;80;20986;-66
2022/04/09 03:12:30;;;;;;;6.00;3.02;;;;;;;11.55;56.82;97021.97;1756880;80;20947;-64
2022/04/09 03:14:58;;;;;;;4.35;2.90;;;;;;;11.56;56.70;97027.05;1728085;82;21586;-63
2022/04/09 03:17:24;;;;;;;4.67;3.70;;;;;;;11.57;56.72;97017.21;1727213;83;21532;-64
2022/04/09 03:19:51;;;;;;;4.22;3.05;;;;;;;11.61;56.57;97019.68;1727456;82;20955;-63
2022/04/09 03:22:19;;;;;;;6.80;3.40;;;;;;;11.64;56.54;97012.55;1725345;82;21547;-62
2022/04/09 03:24:45;;;;;;;3.67;3.33;;;;;;;11.67;56.43;97018.74;1723638;82;20887;-66
2022/04/09 03:27:14;;;;;;;3.27;2.67;;;;;;;11.72;56.42;97020.20;1727794;82;21149;-66
2022/04/09 03:29:42;;;;;;;3.65;3.33;;;;;;;11.75;56.27;97012.56;1727778;82;20891;-66
2022/04/09 03:32:09;;;;;;;4.90;3.30;;;;;;;11.78;56.28;97014.46;1726234;83;20990;-65
2022/04/09 03:34:38;;;;;;;4.58;3.47;;;;;;;11.81;56.35;97007.33;1727533;82;20986;-65
2022/04/09 03:37:05;;;;;;;5.50;3.72;;;;;;;11.85;56.51;97013.27;1728107;82;21614;-65
2022/04/09 03:39:33;;;;;;;3.05;2.75;;;;;;;11.86;56.50;97012.23;1727830;82;21098;-64
2022/04/09 03:42:03;;;;;;;4.55;3.72;;;;;;;11.85;56.66;97023.93;1726332;82;21029;-64
2022/04/09 03:44:30;;;;;;;6.33;4.15;;;;;;;11.85;56.85;97010.61;1727266;83;20995;-65
2022/04/09 03:46:59;;;;;;;4.90;3.90;;;;;;;11.88;57.04;97008.80;1727969;82;20899;-64
2022/04/09 03:49:28;;;;;;;6.22;3.62;;;;;;;11.94;57.02;97009.72;1727374;82;20939;-60
2022/04/09 03:51:56;;;;;;;3.55;3.20;;;;;;;11.99;57.03;97016.47;1726853;82;21231;-65
2022/04/09 03:54:30;;;;;;;3.22;2.92;;;;;;;12.04;57.19;97015.23;1724938;82;21056;-63
2022/04/09 03:56:55;;;;;;;3.55;3.20;;;;;;;12.08;57.39;97015.84;1691951;84;20930;-65
2022/04/09 03:59:23;;;;;;;4.25;3.40;;;;;;;12.13;57.57;97013.78;1692089;84;20998;-65
2022/04/09 04:01:52;;;;;;;5.70;3.87;;;;;;;12.17;57.55;97013.60;1692121;84;20922;-63
2022/04/09 04:04:21;;;;;;;5.08;3.67;;;;;;;12.20;57.61;97007.80;1692176;84;21101;-63
2022/04/09 04:06:48;;;;;;;3.37;3.08;;;;;;;12.27;57.65;97013.27;1692018;84;21535;-65
2022/04/09 04:09:17;;;;;;;4.55;3.27;;;;;;;12.30;57.83;97015.97;1692303;84;20867;-63
2022/04/09 04:11:46;;;;;;;5.40;3.27;;;;;;;12.35;57.92;97018.72;1692192;84;21423;-65
2022/04/09 04:14:15;;;;;;;4.72;3.67;;;;;;;12.40;57.93;97021.47;1687788;83;20942;-64
2022/04/09 04:16:43;;;;;;;4.33;3.15;;;;;;;12.46;58.08;97035.70;1689668;84;21173;-65
2022/04/09 04:19:10;;;;;;;3.83;3.00;;;;;;;12.46;58.15;97031.70;1694494;84;20942;-64
2022/04/09 04:21:38;;;;;;;5.87;3.42;;;;;;;12.46;58.10;97033.86;1677876;85;21065;-65
2022/04/09 04:24:08;;;;;;;4.78;3.40;;;;;;;12.48;58.23;97044.27;1693671;84;21527;-65
2022/04/09 04:26:36;;;;;;;3.40;3.10;;;;;;;12.53;58.27;97041.69;1679007;85;21523;-66
2022/04/09 04:29:04;;;;;;;4.22;3.42;;;;;;;12.57;58.31;97048.14;1693328;84;21793;-66
2022/04/09 04:31:32;;;;;;;3.80;3.08;;;;;;;12.59;58.35;97043.40;1694139;84;20989;-65
2022/04/09 04:34:01;;;;;;;4.62;3.52;;;;;;;12.60;58.33;97040.99;1694117;84;21468;-63
2022/04/09 04:36:30;;;;;;;3.55;3.20;;;;;;;12.62;58.28;97040.25;1694466;84;20997;-65
2022/04/09 04:38:57;;;;;;;4.20;3.58;;;;;;;12.67;58.40;97025.66;1694575;84;21101;-66
2022/04/09 04:41:25;;;;;;;5.08;3.00;;;;;;;12.70;58.54;97030.48;1694005;84;21218;-64
2022/04/09 04:43:54;;;;;;;5.70;3.62;;;;;;;12.70;58.62;97025.16;1693680;84;20992;-65
2022/04/09 04:46:23;;;;;;;4.10;2.87;;;;;;;12.72;58.53;97007.86;1693940;84;20874;-63
2022/04/09 04:48:51;;;;;;;3.58;3.00;;;;;;;12.80;58.38;97005.33;1694218;84;20942;-66
2022/04/09 04:51:21;;;;;;;3.67;2.83;;;;;;;12.85;58.30;97007.52;1694264;84;20987;-63
2022/04/09 04:53:48;;;;;;;4.80;3.27;;;;;;;12.89;58.24;97006.00;1694404;84;21231;-66
2022/04/09 04:56:16;;;;;;;3.75;3.33;;;;;;;12.90;58.29;97008.16;1694388;84;20918;-68
2022/04/09 04:58:45;;;;;;;3.72;3.00;;;;;;;12.94;58.36;97011.94;1694158;84;20850;-66
2022/04/09 05:01:14;;;;;;;3.17;2.90;;;;;;;12.94;58.47;97017.27;1694271;84;20897;-63
2022/04/09 05:03:42;;;;;;;3.90;2.95;;;;;;;13.01;58.43;97023.23;1694216;84;20879;-64
2022/04/09 05:06:17;;;;;;;5.97;2.95;;;;;;;13.12;58.35;97030.38;1685742;85;21177;-62
2022/04/09 05:08:44;;;;;;;3.62;2.85;;;;;;;13.17;58.43;97027.78;1686286;85;20947;-66
2022/04/09 05:11:14;;;;;;;5.35;3.67;;;;;;;13.23;58.70;97029.48;1685753;85;20958;-65
2022/04/09 05:13:42;;;;;;;4.35;3.77;;;;;;;13.30;58.75;97028.77;1689434;84;20877;-64
2022/04/09 05:16:11;;;;;;;5.37;4.42;;;;;;;13.34;58.96;97017.08;1683445;83;20916;-65
2022/04/09 05:18:41;;;;;;;5.28;4.00;;;;;;;13.41;59.06;97021.70;1694234;83;21268;-62
2022/04/09 05:21:09;;;;;;;4.20;3.80;;;;;;;13.46;59.17;97017.77;1682226;84;21175;-65
2022/04/09 05:23:37;;;;;;;6.05;3.65;;;;;;;13.60;58.95;97013.16;1694191;83;21075;-66
2022/04/09 05:26:05;;;;;;;7.15;4.05;;;;;;;13.70;58.89;97017.00;1694098;83;20951;-65
2022/04/09 05:28:32;;;;;;;4.15;3.75;;;;;;;13.75;58.96;97024.55;1693432;84;20940;-64
2022/04/09 05:30:59;;;;;;;4.30;3.33;;;;;;;13.84;58.97;97015.05;1694640;83;21140;-66
2022/04/09 05:33:27;;;;;;;3.95;3.15;;;;;;;13.88;58.99;97030.03;1693507;84;20884;-64
2022/04/09 05:35:56;;;;;;;3.42;3.15;;;;;;;13.97;58.86;97017.86;1694449;83;20916;-64
2022/04/09 05:38:25;;;;;;;4.30;3.40;;;;;;;14.06;58.83;97012.33;1693396;84;20932;-64
2022/04/09 05:40:52;;;;;;;3.60;3.05;;;;;;;14.19;58.58;97025.30;1693367;84;21462;-66
2022/04/09 05:43:20;;;;;;;3.27;2.98;;;;;;;14.27;58.16;97027.52;1694251;83;21165;-64
2022/04/09 05:45:48;;;;;;;3.77;3.02;;;;;;;14.28;57.96;97042.52;1693385;84;20975;-65
2022/04/09 05:48:17;;;;;;;3.72;2.80;;;;;;;14.28;57.79;97021.13;1694026;83;21577;-64
2022/04/09 05:50:46;;;;;;;4.40;3.00;;;;;;;14.28;57.83;97006.42;1692688;83;20984;-65
2022/04/09 05:53:15;;;;;;;4.62;3.30;;;;;;;14.33;57.81;97005.16;1693556;83;20912;-62
2022/04/09 05:55:42;;;;;;;3.00;2.67;;;;;;;14.37;57.64;97014.28;1692546;84;21165;-64
2022/04/09 05:58:11;;;;;;;3.35;2.70;;;;;;;14.44;57.62;97006.88;1683129;83;20971;-64
2022/04/09 06:00:40;;;;;;;3.22;2.60;;;;;;;14.54;57.49;97012.31;1693903;83;20916;-67
2022/04/09 06:03:10;;;;;;;4.28;3.30;;;;;;;14.66;57.21;97003.58;1684024;83;20939;-64
2022/04/09 06:05:38;;;;;;;4.10;2.83;;;;;;;14.86;56.98;97014.17;1693429;84;20931;-64
2022/04/09 06:08:07;;;;;;;3.98;2.92;;;;;;;15.11;56.57;97003.63;1690955;83;21999;-64
2022/04/09 06:10:37;;;;;;;3.35;2.92;;;;;;;15.43;55.67;97005.14;1693329;83;21505;-67
2022/04/09 06:13:04;;;;;;;3.77;2.83;;;;;;;15.85;55.12;96999.73;1694399;83;20946;-66
2022/04/09 06:15:32;;;;;;;3.22;2.83;;;;;;;16.21;53.99;97007.89;1681520;84;20959;-66
2022/04/09 06:18:06;;;;;;;4.10;3.12;;;;;;;16.49;53.11;97004.70;1692005;84;20984;-66
2022/04/09 06:20:34;;;;;;;4.75;3.83;;;;;;;16.68;52.29;97009.86;1669450;84;21217;-63
2022/04/09 06:23:04;;;;;;;5.70;2.80;;;;;;;16.79;51.44;97017.38;1693230;84;21632;-67
2022/04/09 06:25:31;;;;;;;3.35;3.05;;;;;;;16.80;51.07;97010.39;1693440;84;20967;-66
2022/04/09 06:27:58;;;;;;;4.22;3.58;;;;;;;16.90;50.85;97010.38;1693767;83;21014;-67
2022/04/09 06:30:27;;;;;;;16.77;14.70;;;;;;;16.91;50.83;97014.69;1693583;84;20933;-64
2022/04/09 06:32:55;;;;;;;8.58;6.97;;;;;;;17.25;50.36;97008.20;1692325;84;21282;-67
2022/04/09 06:35:24;;;;;;;4.95;4.37;;;;;;;17.79;49.66;97009.13;1689845;84;20841;-65
2022/04/09 06:37:52;;;;;;;4.17;3.05;;;;;;;18.41;48.59;97011.22;1693717;83;20928;-66
2022/04/09 06:40:20;;;;;;;3.37;3.08;;;;;;;18.99;47.10;97015.39;1694095;83;21525;-64
2022/04/09 06:42:47;;;;;;;4.05;3.62;;;;;;;19.42;46.24;97003.66;1693761;83;20873;-67
2022/04/09 06:45:25;;;;;;;3.62;3.12;;;;;;;20.02;45.08;97004.84;1648336;84;21154;-65
2022/04/09 06:48:10;;;;;;;3.67;2.33;;;;;;;20.71;43.34;97023.07;1693291;84;20975;-64
2022/04/09 06:50:40;;;;;;;3.92;2.67;;;;;;;21.19;42.33;97025.03;1692494;83;21564;-64
2022/04/09 06:53:09;;;;;;;4.53;2.58;;;;;;;21.44;41.57;97023.22;1689668;83;20964;-65
2022/04/09 06:55:36;;;;;;;5.45;2.17;;;;;;;21.80;40.75;97026.03;1682480;84;20928;-62
2022/04/09 06:58:04;;;;;;;1.95;1.80;;;;;;;21.76;40.25;97012.06;1693438;84;21243;-64
2022/04/09 07:00:33;;;;;;;3.05;1.87;;;;;;;21.56;40.49;97021.39;1693377;84;20964;-65
2022/04/09 07:03:01;;;;;;;2.92;1.92;;;;;;;21.31;40.80;97027.23;1693652;83;20980;-63
2022/04/09 07:05:28;;;;;;;3.17;1.65;;;;;;;20.96;41.08;97025.94;1693931;83;21552;-62
2022/04/09 07:07:54;;;;;;;5.87;1.80;;;;;;;20.58;41.59;97031.11;1693857;83;20880;-63
2022/04/09 07:10:21;;;;;;;2.02;1.80;;;;;;;20.30;42.12;97039.61;1694679;83;21220;-64
2022/04/09 07:12:48;;;;;;;2.00;1.90;;;;;;;20.20;42.61;97045.12;1694813;83;21036;-63
2022/04/09 07:15:15;;;;;;;2.12;1.92;;;;;;;20.17;42.84;97047.05;1710464;83;20875;-63
2022/04/09 07:17:42;;;;;;;2.08;1.87;;;;;;;19.92;43.33;97033.30;1719243;83;21056;-63
2022/04/09 07:20:10;;;;;;;1.80;1.70;;;;;;;19.80;43.76;97055.04;1693918;83;21027;-65
2022/04/09 07:22:38;;;;;;;5.17;2.25;;;;;;;19.65;44.08;97050.09;1755040;81;21151;-65
2022/04/09 07:25:08;;;;;;;2.08;1.75;;;;;;;19.60;44.51;97060.13;1753159;81;20987;-67
2022/04/09 07:27:41;;;;;;;2.30;1.37;;;;;;;19.58;44.71;97069.83;1754166;81;20930;-65
2022/04/09 07:30:13;;;;;;;1.62;1.30;;;;;;;19.68;44.54;97056.80;1752062;81;21005;-65
2022/04/09 07:32:41;;;;;;;3.95;1.10;;;;;;;19.68;44.61;97056.23;1755587;81;20958;-65
2022/04/09 07:35:09;;;;;;;2.60;1.30;;;;;;;19.68;44.37;97065.67;1754124;81;21551;-61
2022/04/09 07:37:50;;;;;;;1.60;1.32;;;;;;;19.64;44.35;97071.94;1755511;81;20879;-65
2022/04/09 07:40:19;;;;;;;2.55;1.72;;;;;;;19.60;44.16;97073.61;1755826;81;21417;-65
2022/04/09 07:42:46;;;;;;;1.85;1.50;;;;;;;19.47;44.33;97077.78;1754651;81;20962;-66
2022/04/09 07:45:14;;;;;;;2.62;2.42;;;;;;;19.36;44.48;97074.89;1754468;81;20923;-64
2022/04/09 07:47:42;;;;;;;3.72;2.05;;;;;;;19.22;44.61;97080.66;1754552;81;21228;-64
2022/04/09 07:50:10;;;;;;;1.60;1.50;;;;;;;19.17;44.87;97082.05;1744401;81;20934;-63
2022/04/09 07:52:40;;;;;;;2.72;1.80;;;;;;;19.09;44.96;97075.92;1752469;81;21014;-65
2022/04/09 07:55:08;;;;;;;2.30;2.10;;;;;;;19.03;45.32;97075.72;1754445;81;20951;-65
2022/04/09 07:57:35;;;;;;;3.20;1.65;;;;;;;18.99;45.59;97084.09;1756133;81;20944;-67
2022/04/09 08:00:05;;;;;;;2.77;1.50;;;;;;;18.97;45.72;97072.26;1756928;81;21219;-63
2022/04/09 08:02:34;;;;;;;1.70;1.60;;;;;;;18.94;45.54;97082.78;1752736;81;20911;-65
2022/04/09 08:05:02;;;;;;;1.80;1.67;;;;;;;18.83;45.54;97077.20;1756144;80;20979;-60
2022/04/09 08:07:30;;;;;;;2.87;1.50;;;;;;;18.78;45.75;97089.36;1754138;81;20990;-65
2022/04/09 08:09:57;;;;;;;2.20;1.82;;;;;;;18.76;45.93;97068.10;1753305;81;21060;-64
2022/04/09 08:12:25;;;;;;;1.70;1.27;;;;;;;18.79;45.91;97074.28;1755086;81;20926;-63
2022/04/09 08:14:53;;;;;;;1.60;1.40;;;;;;;18.83;45.80;97075.85;1742269;81;21394;-66
2022/04/09 08:17:20;;;;;;;1.87;1.22;;;;;;;18.80;45.70;97073.71;1724803;82;21067;-63
2022/04/09 08:19:50;;;;;;;2.20;1.60;;;;;;;18.73;45.97;97075.39;1726107;83;20946;-67
2022/04/09 08:22:18;;;;;;;1.60;1.50;;;;;;;18.77;46.06;97081.81;1726839;82;21078;-64
2022/04/09 08:24:46;;;;;;;2.00;1.57;;;;;;;18.89;46.06;97081.47;1728065;82;20888;-66
2022/04/09 08:27:13;;;;;;;2.50;1.40;;;;;;;18.91;45.82;97074.72;1727641;82;20931;-65
2022/04/09 08:29:39;;;;;;;2.10;1.47;;;;;;;18.92;45.90;97079.03;1727766;82;20947;-64
2022/04/09 08:32:07;;;;;;;1.37;1.27;;;;;;;19.04;45.77;97072.73;1727476;82;20955;-64
2022/04/09 08:34:35;;;;;;;1.72;1.42;;;;;;;19.09;45.72;97071.88;1727898;82;20987;-66
2022/04/09 08:37:03;;;;;;;2.60;1.50;;;;;;;19.12;45.64;97060.54;1727787;82;21139;-66
2022/04/09 08:39:30;;;;;;;2.10;1.45;;;;;;;19.13;45.29;97058.12;1727281;82;21014;-65
2022/04/09 08:41:58;;;;;;;1.45;1.12;;;;;;;19.10;45.26;97055.98;1727881;82;21615;-65
2022/04/09 08:44:25;;;;;;;1.05;1.05;;;;;;;19.12;45.31;97048.41;1727768;82;20868;-64
2022/04/09 08:46:54;;;;;;;1.52;1.10;;;;;;;19.21;45.10;97044.58;1728303;82;21002;-64
2022/04/09 08:49:21;;;;;;;1.60;1.15;;;;;;;19.32;44.78;97042.83;1705793;84;21166;-63
2022/04/09 08:51:48;;;;;;;3.90;1.57;;;;;;;19.52;44.53;97048.08;1723820;82;21539;-65
2022/04/09 08:54:15;;;;;;;2.20;1.45;;;;;;;19.75;44.31;97045.66;1727717;82;20986;-65
2022/04/09 08:56:42;;;;;;;1.52;1.20;;;;;;;19.96;44.07;97034.89;1705319;83;21507;-65
2022/04/09 08:59:11;;;;;;;2.15;1.55;;;;;;;20.16;43.41;97038.67;1727842;82;21079;-66
2022/04/09 09:01:39;;;;;;;1.32;1.22;;;;;;;20.33;43.03;97051.19;1727280;82;20939;-64
2022/04/09 09:04:06;;;;;;;0.90;0.85;;;;;;;20.42;42.49;97053.47;1727746;82;21516;-66
2022/04/09 09:06:35;;;;;;;1.47;1.10;;;;;;;20.50;42.29;97046.61;1727471;82;20978;-65
2022/04/09 09:09:04;;;;;;;1.10;0.98;;;;;;;20.59;42.09;97047.58;1727515;82;20966;-68
2022/04/09 09:11:48;;;;;;;1.07;0.98;;;;;;;20.84;41.96;97057.99;1727837;82;21062;-64
2022/04/09 09:14:32;;;;;;;1.67;1.10;;;;;;;21.15;41.15;97059.69;1729688;80;21126;-65
2022/04/09 09:17:00;;;;;;;1.62;0.98;;;;;;;21.39;40.67;97054.95;1755737;81;20986;-65
2022/04/09 09:19:50;;;;;;;1.40;1.32;;;;;;;21.46;40.07;97049.41;1754888;81;20914;-65
2022/04/09 09:22:18;;;;;;;1.30;1.20;;;;;;;21.64;39.67;97053.70;1756292;81;20922;-65
2022/04/09 09:25:05;;;;;;;1.50;1.12;;;;;;;21.98;39.10;97043.30;1755894;81;20931;-66
2022/04/09 09:27:32;;;;;;;2.00;1.27;;;;;;;22.28;38.63;97043.23;1756300;81;21236;-64
2022/04/09 09:29:59;;;;;;;2.17;1.15;;;;;;;22.58;37.89;97034.42;1755746;81;20970;-63
2022/04/09 09:32:45;;;;;;;1.20;1.02;;;;;;;22.70;37.55;97027.96;1754961;81;21413;-62
2022/04/09 09:35:30;;;;;;;1.20;1.10;;;;;;;23.00;37.18;97038.06;1754495;81;21488;-66
2022/04/09 09:38:47;;;;;;;;;;;;;;;;;;;;;
2022/04/09 09:41:28;;;;;;;1.60;1.10;;;;;;;23.25;36.56;97038.01;1717115;81;20951;-66
2022/04/09 09:44:16;;;;;;;0.80;0.80;;;;;;;23.09;36.42;97028.09;1691175;83;20943;-64
2022/04/09 09:46:52;;;;;;;1.92;1.02;;;;;;;22.77;36.70;97025.62;1714743;83;20947;-65
2022/04/09 09:49:30;;;;;;;1.07;1.00;;;;;;;22.58;37.13;97016.27;1696275;83;21571;-64
2022/04/09 09:52:10;;;;;;;0.90;0.90;;;;;;;22.76;36.92;97013.74;1755066;81;20958;-67
2022/04/09 09:55:10;;;;;;;1.12;0.88;;;;;;;22.64;37.21;97014.27;1756172;81;21393;-61
2022/04/09 09:57:46;;;;;;;1.40;0.88;;;;;;;22.67;37.04;97011.77;1702987;82;20898;-64
2022/04/09 10:00:26;;;;;;;1.30;0.88;;;;;;;22.75;36.85;97011.58;1756649;81;21010;-67
2022/04/09 10:03:05;;;;;;;1.12;1.02;;;;;;;22.68;36.75;97011.22;1727905;81;21433;-66
2022/04/09 10:05:38;;;;;;;1.02;0.68;;;;;;;22.70;36.46;97001.67;1719011;82;20942;-63
2022/04/09 10:08:07;;;;;;;1.35;0.80;;;;;;;22.73;36.47;96998.90;1755159;81;21144;-63
2022/04/09 10:10:37;;;;;;;1.02;0.72;;;;;;;22.87;36.40;97000.17;1756501;81;21448;-63
2022/04/09 10:13:05;;;;;;;0.70;0.70;;;;;;;23.03;36.43;97008.98;1756738;81;20993;-66
2022/04/09 10:15:33;;;;;;;1.50;0.70;;;;;;;23.23;36.07;97012.53;1755538;81;20977;-64
2022/04/09 10:18:01;;;;;;;0.80;0.80;;;;;;;23.34;35.71;97007.09;1756805;81;21056;-65
2022/04/09 10:20:29;;;;;;;0.70;0.70;;;;;;;23.40;35.67;97012.42;1756310;80;22154;-68
2022/04/09 10:22:59;;;;;;;0.85;0.85;;;;;;;23.42;35.79;97029.17;1756680;81;20914;-65
2022/04/09 10:25:28;;;;;;;1.20;0.80;;;;;;;23.37;35.44;97013.84;1756507;81;20982;-65
2022/04/09 10:28:01;;;;;;;1.75;0.80;;;;;;;23.25;35.52;97019.83;1755832;81;21424;-66
2022/04/09 10:30:29;;;;;;;1.25;0.70;;;;;;;23.19;35.82;97012.12;1756554;81;20977;-65
2022/04/09 10:32:59;;;;;;;1.07;0.80;;;;;;;23.25;35.61;97019.83;1755269;81;21214;-64
2022/04/09 10:35:39;;;;;;;1.35;0.80;;;;;;;23.28;35.43;97019.19;1755585;81;20855;-67
2022/04/09 10:38:13;;;;;;;1.07;0.85;;;;;;;23.41;35.57;97009.96;1743880;81;20993;-64
2022/04/09 10:41:01;;;;;;;0.75;0.60;;;;;;;23.61;35.43;97014.29;1755770;81;21019;-66
2022/04/09 10:43:30;;;;;;;2.05;0.90;;;;;;;23.80;34.89;97007.27;1742214;81;21495;-67
2022/04/09 10:46:17;;;;;;;0.62;0.62;;;;;;;24.12;33.94;97003.36;1755861;81;21849;-68
2022/04/09 10:48:42;;;;;;;1.00;0.70;;;;;;;24.10;33.85;97008.31;1754861;81;20910;-65
2022/04/09 10:51:13;;;;;;;0.80;0.80;;;;;;;24.10;33.85;97008.31;1743792;81;21001;-68
2022/04/09 10:53:44;;;;;;;1.22;0.90;;;;;;;24.08;34.05;97020.87;1755554;81;20923;-63
2022/04/09 10:56:24;;;;;;;1.70;1.00;;;;;;;23.71;34.56;97010.48;1744154;81;21000;-66
2022/04/09 10:59:18;;;;;;;2.95;1.00;;;;;;;23.71;34.56;97010.48;1756660;81;21151;-66
2022/04/09 11:01:50;;;;;;;0.82;0.60;;;;;;;23.75;34.36;97020.39;1756729;81;21001;-66
2022/04/09 11:04:32;;;;;;;1.35;0.82;;;;;;;23.69;34.03;97031.17;1755681;81;20922;-66
2022/04/09 11:07:06;;;;;;;1.87;0.70;;;;;;;23.45;34.13;97027.20;1755956;81;21417;-64
2022/04/09 11:10:00;;;;;;;1.10;0.70;;;;;;;23.15;34.53;97032.84;1754920;81;20946;-65
2022/04/09 11:12:42;;;;;;;1.05;0.82;;;;;;;22.92;34.95;97029.31;1756384;81;21032;-65
2022/04/09 11:15:15;;;;;;;0.80;0.80;;;;;;;22.75;35.35;97023.77;1744513;81;21006;-65
2022/04/09 11:17:48;;;;;;;0.85;0.70;;;;;;;22.65;35.75;97018.59;1756618;81;20938;-68
2022/04/09 11:20:26;;;;;;;1.02;0.85;;;;;;;22.63;35.79;97022.17;1709473;83;20907;-67
2022/04/09 11:22:52;;;;;;;0.70;0.70;;;;;;;22.54;35.91;97023.41;1754541;81;20918;-67
2022/04/09 11:25:27;;;;;;;1.00;0.90;;;;;;;22.55;36.04;97025.58;1756384;81;21220;-67
2022/04/09 11:28:17;;;;;;;1.00;0.70;;;;;;;22.52;36.27;97022.12;1756829;81;21420;-66
2022/04/09 11:30:55;;;;;;;1.02;0.70;;;;;;;22.58;36.18;97024.94;1756659;81;20958;-63
2022/04/09 11:33:22;;;;;;;1.17;0.80;;;;;;;22.66;36.10;97015.56;1747380;81;20985;-65
2022/04/09 11:35:51;;;;;;;0.75;0.60;;;;;;;22.73;35.98;97022.71;1756724;81;21015;-65
2022/04/09 11:38:18;;;;;;;0.88;0.70;;;;;;;22.78;36.12;97015.03;1756630;81;21141;-65
2022/04/09 11:40:49;;;;;;;0.85;0.70;;;;;;;22.94;35.71;97019.54;1755088;81;21412;-63
2022/04/09 11:43:17;;;;;;;0.88;0.53;;;;;;;23.05;35.53;97018.96;1693267;83;21424;-62
2022/04/09 11:45:45;;;;;;;0.85;0.60;;;;;;;23.16;34.99;97027.64;1751636;81;21454;-64
2022/04/09 11:48:19;;;;;;;1.75;0.60;;;;;;;23.16;34.66;97018.96;1755637;81;20934;-70